Adam Morgan

Scout - Reading
6 Aug 2028
Sonntag
Verarbeitung

Persönlichkeit

Anpassungsfähigkeit (15) Ehrgeiz (19) Kontroverse (13) Loyalität (10) Druck (8) Professionalität (9) Fairness (1) Temperament (3)

Profil

Trainerstil Demokratisch
Lizenz Nationale B
Entschlossenheit 12
Menschenführung 7
Motivation 4
Disziplin 4
Arbeitszufriedenheit
100%
Ermüdung
0%
Rolle Scout
Gehalt 46.1K p/W
Vertrag 14.03.2030

Leistung

Verhalten Gut
Trainingseffektivität
35%
Spielerentwicklung
45%
Verletzungsprävention
20%
Taktische Umsetzung
35%

Letzte Ereignisse

Nahm an einer Scouting-Besprechung teil jetzt
Empfahl ein Transferziel jetzt
Nahm an einer Scouting-Besprechung teil 7T her
Empfahl ein Transferziel 7T her
Empfahl ein Transferziel 7T her
Legte dem Vorstand ein Dossier vor 7T her
Empfahl ein Transferziel 14T her
Empfahl ein Transferziel 14T her

Aktuell beobachtet

104
Spieler Verein Status Fähigkeit Vertrauen Beobachtet Zuletzt beobachtet Letzte Stimme
Miguel Figueiredo Benfica Aktiv 126 / 128 40% 5 12.06.2028 -
Jamie Wähling Hibernians Aktiv 90 / 92 40% 6 12.06.2028 -
Jan Bürger Northampton Town Aktiv 127 / 121 40% 4 12.06.2028 -
Jake Evans Crewe Alexandra Aktiv 110 / 126 40% 1 07.06.2028 -
Ryan Kavuma-McQueen Accrington Stanley Aktiv 114 / 134 40% 1 07.06.2028 -
Leo Pecover Swindon Town Aktiv 92 / 107 40% 1 07.06.2028 -
Abubakar Adams Aduana Stars Aktiv 79 / 84 40% 3 31.05.2028 -
Daniel Banjaqui Benfica Aktiv 125 / 126 40% 5 30.05.2028 -
Simone Suppa Virtus Verona Aktiv 83 / 90 40% 3 30.05.2028 -
Jorthy Mokio ADO Den Haag Aktiv 136 / 134 40% 1 30.05.2028 -
Giovanni Leoni Lincoln City Aktiv 146 / 145 40% 2 29.05.2028 -
Bernardo Lima Porto Aktiv 115 / 120 40% 1 29.05.2028 -
Martim Cunha Porto Aktiv 107 / 111 40% 3 28.05.2028 -
Riquelme Thompson-Jones Accrington Stanley Aktiv 115 / 119 40% 3 28.05.2028 -
Christos Mouzakitis Hull City Aktiv 139 / 144 40% 4 27.05.2028 -
Gideon Manaseh Ikorodu City Aktiv 87 / 96 40% 3 27.05.2028 -
Tyler Fletcher Rotherham United Aktiv 117 / 121 40% 1 27.05.2028 -
Andrea Cogoni Cosenza Aktiv 113 / 112 40% 2 26.05.2028 -
Josh Nichols Oldham Athletic Aktiv 124 / 124 40% 4 25.05.2028 -
Eko Solomon Leixões Aktiv 83 / 92 40% 3 21.05.2028 -
Joel Ezra Enyimba Aktiv 104 / 109 40% 3 18.05.2028 -
Andrey Ivlev Nizhniy Novgorod Aktiv 116 / 120 40% 3 18.05.2028 -
Amine Boukamir Charleroi Aktiv 100 / 109 40% 2 17.05.2028 -
Tobías Ramírez River Plate Aktiv 127 / 134 40% 1 15.05.2028 -
Kiani Inge Groningen Aktiv 111 / 117 40% 3 13.05.2028 -
Nicolò Moranduzzo Renate Aktiv 89 / 99 40% 3 12.05.2028 -
Musa Danjuma Umraniyespor Aktiv 94 / 98 40% 2 01.05.2028 -
Celías Ingenthron Platense Aktiv 117 / 124 40% 1 01.05.2028 -
Artem Nosachev Spartak Moscow Aktiv 70 / 82 40% 2 30.04.2028 -
Adnan Nainggolan KV Oostende Aktiv 100 / 110 40% 2 28.04.2028 -
Ronan Kpakio AC Milan Aktiv 120 / 130 40% 2 27.04.2028 -
Olivier Leroux Mouscron Aktiv 104 / 113 40% 3 23.04.2028 -
Bence Szakos Aris Aktiv 87 / 93 40% 1 22.04.2028 -
Hosea Michael Remo Stars Aktiv 89 / 97 40% 2 19.04.2028 -
Itumeleng Jali Spezia Aktiv 117 / 123 40% 1 10.04.2028 -
Nicolas Sport Recife Aktiv 109 / 118 40% 1 06.04.2028 -
Claudio Martey Pianese Aktiv 93 / 94 40% 1 05.04.2028 -
Lebogang Manyama SuperSport United Aktiv 121 / 103 40% 2 29.05.2027 -
Charlie Webster Burton Albion Aktiv 113 / 112 40% 1 29.05.2027 -
Federico Zuccon Foggia Aktiv 120 / 120 40% 1 29.05.2027 -
Idris El Mizouni Leyton Orient Aktiv 121 / 123 40% 1 27.05.2027 -
Max Bird Birmingham Aktiv 130 / 131 40% 4 26.05.2027 -
Joel Bagan Cardiff City Aktiv 115 / 106 40% 1 26.05.2027 -
Darlin Yongwa Norwich City Aktiv 128 / 132 40% 1 26.05.2027 -
Aidan Morris Middlesbrough Aktiv 132 / 127 40% 2 25.05.2027 -
Archie Collins Peterborough United Aktiv 121 / 116 40% 1 25.05.2027 -
Oliver Skipp Leicester City Aktiv 139 / 135 40% 1 25.05.2027 -
Ethan Pye Stockport County Aktiv 124 / 111 40% 2 24.05.2027 -
Jay Matete Milton Keynes Dons Aktiv 112 / 120 40% 1 24.05.2027 -
Lucas Da Cunha Como Aktiv 148 / 141 40% 2 23.05.2027 Mehr Infos nötig
Lewis Bate Stockport County Aktiv 122 / 124 40% 2 22.05.2027 -
Gonçalo Franco Swansea City Aktiv 122 / 119 40% 1 22.05.2027 -
Harvey Vale Queens Park Rangers Aktiv 121 / 119 40% 1 22.05.2027 -
Xavier Simons Bolton Wanderers Aktiv 126 / 120 40% 2 21.05.2027 -
Alfie Gilchrist West Bromwich Albion Aktiv 127 / 122 40% 1 21.05.2027 -
Max Johnston Derby County Aktiv 122 / 123 40% 2 16.05.2027 -
Brian De Keersmaecker Oxford United Aktiv 126 / 122 40% 2 15.05.2027 -
Ahmed Zaki Masr El Makasa Aktiv 75 / 91 40% 1 15.05.2027 -
Adam Randell Bristol City Aktiv 127 / 135 40% 1 13.05.2027 -
Jacques Ekomié Wrexham Aktiv 127 / 124 40% 2 12.05.2027 -
Christoph Klarer Birmingham Aktiv 131 / 126 40% 1 12.05.2027 -
Mpho Khethang FC Diarra Aktiv 82 / 93 40% 1 11.05.2027 -
Kazunari Kita Real Sociedad Aktiv 103 / 103 40% 1 11.05.2027 -
Bosun Lawal Stoke City Aktiv 124 / 135 40% 2 07.05.2027 -
Welington Southampton Aktiv 132 / 127 40% 1 07.05.2027 -
Harrison Burrows Sheffield United Aktiv 128 / 127 40% 1 07.05.2027 -
Afriyie Sulemana WAFA Aktiv 82 / 89 40% 2 06.05.2027 -
Jack Currie Oxford United Aktiv 127 / 130 40% 2 06.05.2027 -
Kamaldeen Atiemo Wa All Stars Aktiv 105 / 107 40% 2 06.05.2027 -
Rivaldo Mkhize Black Aces Aktiv 81 / 85 40% 1 06.05.2027 -
Brooke Norton-Cuffy Hull City Aktiv 143 / 141 40% 4 03.05.2027 Beobachten
Shea Charles Southampton Aktiv 135 / 142 40% 2 03.05.2027 Mehr Infos nötig
Leighton Clarkson Blackpool Aktiv 123 / 126 40% 1 03.05.2027 -
Ezra Mayers West Ham United Aktiv 122 / 122 40% 2 02.05.2027 -
Samuele di Benedetto Twente Aktiv 109 / 123 40% 1 02.05.2027 -
Teboho Mokoena Black Aces Aktiv 89 / 88 40% 1 02.05.2027 -
Gonçalo Oliveira Benfica Aktiv 105 / 115 40% 2 28.04.2027 -
Moncef Zekri Sporting CP Aktiv 91 / 112 40% 1 28.04.2027 -
Tommaso Cecotti Carpi Aktiv 89 / 95 40% 1 27.04.2027 -
Mustapha Jawad Kano Pillars Aktiv 96 / 95 40% 1 26.04.2027 -
Dennis Cirkin Queens Park Rangers Aktiv 126 / 135 40% 2 24.04.2027 -
Moussa Baradji Blackburn Rovers Aktiv 123 / 123 40% 4 23.04.2027 -
Enrico Delprato Parma Aktiv 143 / 131 40% 1 23.04.2027 -
Lee Buchanan Sheffield Wednesday Aktiv 125 / 118 40% 1 23.04.2027 -
Tiago Freitas Benfica Aktiv 110 / 117 40% 3 22.04.2027 -
Adilson Malanda Middlesbrough Aktiv 133 / 121 40% 1 20.04.2027 -
Jacob Greaves Ipswich Town Aktiv 137 / 137 40% 1 20.04.2027 -
Habib Diarra Sunderland Aktiv 136 / 145 40% 2 19.04.2027 -
Alfie Doughty Millwall Aktiv 129 / 122 40% 2 18.04.2027 -
Chibueze Oputa Rangers International Aktiv 80 / 97 40% 1 16.04.2027 -
Nicolas Madsen Queens Park Rangers Aktiv 125 / 122 40% 3 15.04.2027 -
Olalekan Adeleke Remo Stars Aktiv 88 / 86 40% 1 12.04.2027 -
Jonathan Varane Queens Park Rangers Aktiv 124 / 120 40% 1 04.04.2027 -
David Ozoh Derby County Aktiv 117 / 131 40% 1 04.04.2027 -
Alessandro Zoboletti Sambenedettese Aktiv 88 / 100 40% 1 03.04.2027 -
Jayden Bogle Leeds United Aktiv 144 / 142 40% 1 28.03.2027 -
Caspar Jander Southampton Aktiv 130 / 131 40% 2 26.03.2027 -
Godwin Oham Warri Wolves Aktiv 88 / 85 40% 1 25.03.2027 -
Pelle Mattsson Norwich City Aktiv 118 / 126 40% 1 24.03.2027 -
Terry Devlin Portsmouth Aktiv 121 / 113 40% 1 24.03.2027 -
Japhet Tanganga Sheffield United Aktiv 127 / 138 40% 3 23.03.2027 -
Florentino Luís Ipswich Town Aktiv 137 / 132 40% 1 23.03.2027 -
Cemran Dansin Orlando Pirates Aktiv 102 / 121 40% 1 19.03.2027 -
Cheick Doucouré Crystal Palace Aktiv 137 / 144 40% 1 17.03.2027 -